createdAt,value
2018-11-06T00:04:33.749Z,14.15
2018-11-06T00:09:37.071Z,13.71
2018-11-06T00:14:41.170Z,13.83
2018-11-06T01:46:01.538Z,13.09
2018-11-06T01:51:05.639Z,13.04
2018-11-06T01:56:08.954Z,12.81
2018-11-06T03:33:17.328Z,12.82
2018-11-06T03:38:47.738Z,12.86
2018-11-06T03:43:51.090Z,12.82
2018-11-06T04:46:26.222Z,12.40
2018-11-06T04:51:29.555Z,12.31
2018-11-06T04:56:32.879Z,12.23
2018-11-06T05:35:57.571Z,12.13
2018-11-06T05:41:01.655Z,12.02
2018-11-06T05:46:05.015Z,12.19
2018-11-06T05:51:09.102Z,12.20
2018-11-06T05:56:12.431Z,12.16
2018-11-06T06:01:15.770Z,12.08
2018-11-06T06:06:19.871Z,12.12
2018-11-06T06:11:23.196Z,12.13
2018-11-06T06:16:27.288Z,12.11
2018-11-06T06:21:30.614Z,12.18
2018-11-06T06:26:33.943Z,12.31
2018-11-06T06:31:44.060Z,12.37
2018-11-06T06:36:47.401Z,12.42
2018-11-06T06:41:50.738Z,12.51
2018-11-06T06:46:54.067Z,12.52
2018-11-06T06:51:58.151Z,12.57
2018-11-06T06:57:15.106Z,12.60
2018-11-06T07:02:18.442Z,12.68
2018-11-06T07:07:22.535Z,12.72
2018-11-06T07:12:25.864Z,12.82
2018-11-06T07:17:29.196Z,12.97
2018-11-06T07:22:33.284Z,13.16
2018-11-06T07:27:37.514Z,13.26
2018-11-06T08:01:26.746Z,14.07
2018-11-06T08:06:30.186Z,14.14
2018-11-06T08:11:33.426Z,14.13
2018-11-06T09:02:38.418Z,16.33
2018-11-06T09:07:41.641Z,16.70
2018-11-06T09:12:45.738Z,17.11
2018-11-06T10:03:50.238Z,18.98
2018-11-06T10:08:54.332Z,19.19
2018-11-06T10:13:57.659Z,19.31
2018-11-06T11:05:03.007Z,19.85
2018-11-06T11:10:06.343Z,19.90
2018-11-06T11:15:10.614Z,19.97
2018-11-06T12:00:56.444Z,20.93
2018-11-06T12:05:59.776Z,21.03
2018-11-06T12:11:03.113Z,21.31
2018-11-06T13:02:08.315Z,22.36
2018-11-06T13:07:11.655Z,22.91
2018-11-06T13:12:14.988Z,23.21
2018-11-06T14:03:19.889Z,24.45
2018-11-06T14:08:23.244Z,24.16
2018-11-06T14:13:27.334Z,23.70
2018-11-06T15:04:31.381Z,23.22
2018-11-06T15:09:34.716Z,22.89
2018-11-06T15:14:38.054Z,22.66
2018-11-06T15:48:27.681Z,21.60
2018-11-06T15:53:30.978Z,21.49
2018-11-06T15:58:34.317Z,21.42
2018-11-06T16:32:23.958Z,20.85
2018-11-06T16:37:27.283Z,20.70
2018-11-06T16:42:31.377Z,20.58
2018-11-06T16:47:34.722Z,20.46
2018-11-06T16:52:38.817Z,20.36
2018-11-06T16:57:42.150Z,20.24
2018-11-06T17:02:45.484Z,20.13
2018-11-06T17:07:49.587Z,20.07
2018-11-06T17:12:54.886Z,20.00
2018-11-06T17:17:58.251Z,19.92
2018-11-06T17:23:02.454Z,19.81
2018-11-06T17:28:10.547Z,19.71
2018-11-06T17:33:15.590Z,19.56
2018-11-06T17:44:09.919Z,19.15
2018-11-06T17:49:13.258Z,19.09
2018-11-06T17:54:17.359Z,19.08
2018-11-06T17:59:20.710Z,19.01
2018-11-06T18:04:24.415Z,18.91
2018-11-06T18:09:28.655Z,18.83
2018-11-06T18:14:32.015Z,18.72
2018-11-06T18:19:35.339Z,18.60
2018-11-06T18:24:38.696Z,18.47
2018-11-06T18:29:42.778Z,18.52
2018-11-06T18:34:46.266Z,18.36
2018-11-06T18:39:49.728Z,18.48
2018-11-06T18:44:53.176Z,18.43
2018-11-06T18:49:56.521Z,18.39
2018-11-06T18:54:59.866Z,18.35
2018-11-06T19:00:03.220Z,18.31
2018-11-06T19:05:06.567Z,18.22
2018-11-06T19:10:10.115Z,18.17
2018-11-06T19:15:13.461Z,18.03
2018-11-06T19:20:16.800Z,17.74
2018-11-06T19:25:20.130Z,15.32
2018-11-06T19:30:23.474Z,16.45
2018-11-06T19:35:26.818Z,16.71
2018-11-06T19:40:30.187Z,16.73
2018-11-06T19:45:33.495Z,16.79
2018-11-06T19:50:36.955Z,17.06
2018-11-06T19:55:40.334Z,16.96
2018-11-06T20:00:43.751Z,16.51
2018-11-06T20:05:47.179Z,16.53
2018-11-06T20:10:50.367Z,16.56
2018-11-06T20:15:53.737Z,16.65
2018-11-06T20:20:57.823Z,16.72
2018-11-06T20:26:01.158Z,16.67
2018-11-06T20:31:05.343Z,16.48
2018-11-06T20:36:08.672Z,16.13
2018-11-06T20:41:12.058Z,15.81
2018-11-06T20:46:15.417Z,15.72
2018-11-06T20:51:18.730Z,15.38
2018-11-06T20:56:22.827Z,15.11
2018-11-06T21:01:26.170Z,15.43
2018-11-06T21:06:29.538Z,15.65
2018-11-06T21:11:32.909Z,15.70
2018-11-06T21:16:36.203Z,15.52
2018-11-06T21:21:39.540Z,15.50
2018-11-06T21:26:43.702Z,15.50
2018-11-06T21:31:47.027Z,15.12
2018-11-06T21:36:50.364Z,15.24
2018-11-06T21:41:53.704Z,14.81
2018-11-06T21:46:57.795Z,14.62
2018-11-06T21:52:01.128Z,14.83
2018-11-06T21:57:08.403Z,14.63
2018-11-06T22:02:11.747Z,14.33
2018-11-06T22:07:22.590Z,14.70
2018-11-06T22:12:25.958Z,14.84
2018-11-06T22:17:36.791Z,15.14
2018-11-06T22:22:40.118Z,15.03
2018-11-06T22:27:43.466Z,15.03
2018-11-06T22:32:47.571Z,15.01
2018-11-06T22:38:04.134Z,14.73
2018-11-06T22:43:07.399Z,14.88
2018-11-06T22:48:10.726Z,14.81
2018-11-06T22:53:14.126Z,14.72
2018-11-06T22:58:17.415Z,14.53
2018-11-06T23:03:20.742Z,14.69
2018-11-06T23:08:24.070Z,14.74
2018-11-06T23:13:27.403Z,14.64
2018-11-06T23:18:30.731Z,14.59
2018-11-06T23:23:34.818Z,14.58
2018-11-06T23:28:38.146Z,14.64
2018-11-06T23:33:41.482Z,14.59
2018-11-06T23:38:45.569Z,14.50
2018-11-06T23:43:48.899Z,14.50
2018-11-06T23:48:52.226Z,14.42
2018-11-06T23:53:55.547Z,14.38
2018-11-06T23:58:58.879Z,14.30
